Terminal Aerodrome Forecast
Issued by NWS

Home | Current Version | Previous Version | Text Only | Print | Product List | Glossary On
Versions: 1 2 3 4 5 6 7 8 9 10 11 12
000
FTUS46 KSGX 251100
TAFPSP
TAF
KPSP 251129Z 2512/2612 VRB06KT P6SM FEW090
     FM252300 33011KT P6SM FEW090
     FM260200 32012G20KT P6SM FEW090
     FM260700 VRB06KT P6SM FEW090=

USA.gov is the U.S. government's official web portal to all federal, state and local government web resources and services.